| time (UTC) | temp F | wind direction | speed MPH | gust MPH | rain 1hr in | rain 24hr in | rain mn in | humidity % | barometer mb |
| 20260509193501 | 80 | 301 | 9.0 | 13.0 | 0.00 | 0.02 | 0.02 | 43 | 1010.1 |
| 20260509192957 | 80 | 252 | 6.0 | 7.0 | 0.00 | 0.02 | 0.02 | 46 | 1010.2 |
| 20260509192454 | 80 | 304 | 4.0 | 5.0 | 0.00 | 0.02 | 0.02 | 43 | 1010.2 |
| 20260509191949 | 80 | 320 | 4.0 | 6.0 | 0.00 | 0.02 | 0.02 | 45 | 1010.2 |
| 20260509191444 | 79 | 255 | 1.0 | 1.0 | 0.00 | 0.02 | 0.02 | 47 | 1010.2 |
| 20260509190940 | 80 | 256 | 4.0 | 5.0 | 0.00 | 0.02 | 0.02 | 48 | 1009.9 |
| 20260509190438 | 80 | 255 | 4.0 | 6.0 | 0.00 | 0.02 | 0.02 | 46 | 1010.0 |
| 20260509185935 | 79 | 267 | 4.0 | 6.0 | 0.00 | 0.02 | 0.02 | 45 | 1010.2 |
| 20260509185432 | 79 | 255 | 5.0 | 5.0 | 0.00 | 0.02 | 0.02 | 51 | 1010.2 |
| 20260509184929 | 78 | 246 | 4.0 | 6.0 | 0.00 | 0.02 | 0.02 | 45 | 1010.1 |
| 20260509184427 | 79 | 259 | 6.0 | 8.0 | 0.00 | 0.02 | 0.02 | 51 | 1010.2 |
| 20260509183923 | 78 | 223 | 1.0 | 2.0 | 0.00 | 0.02 | 0.02 | 46 | 1010.3 |
| 20260509183417 | 78 | 252 | 3.0 | 3.0 | 0.00 | 0.02 | 0.02 | 51 | 1010.2 |
| 20260509182914 | 78 | 287 | 3.0 | 3.0 | 0.00 | 0.02 | 0.02 | 51 | 1010.5 |
| 20260509182411 | 78 | 251 | 5.0 | 6.0 | 0.00 | 0.02 | 0.02 | 54 | 1010.5 |
| 20260509181908 | 78 | 255 | 3.0 | 3.0 | 0.00 | 0.02 | 0.02 | 52 | 1010.7 |
| 20260509181406 | 77 | 289 | 5.0 | 6.0 | 0.00 | 0.02 | 0.02 | 50 | 1010.6 |
| 20260509180903 | 77 | 244 | 3.0 | 3.0 | 0.00 | 0.02 | 0.02 | 53 | 1010.8 |
| 20260509180358 | 77 | 301 | 6.0 | 7.0 | 0.00 | 0.02 | 0.02 | 48 | 1010.7 |
| 20260509175855 | 77 | 274 | 7.0 | 8.0 | 0.00 | 0.02 | 0.02 | 47 | 1010.8 |
| 20260509175346 | 77 | 288 | 3.0 | 5.0 | 0.00 | 0.02 | 0.02 | 55 | 1010.7 |
| 20260509174842 | 77 | 312 | 3.0 | 3.0 | 0.00 | 0.02 | 0.02 | 53 | 1010.3 |
| 20260509174338 | 77 | 284 | 4.0 | 5.0 | 0.00 | 0.02 | 0.02 | 53 | 1010.6 |
| 20260509173834 | 76 | 335 | 6.0 | 8.0 | 0.00 | 0.02 | 0.02 | 51 | 1010.8 |
| 20260509173329 | 76 | 262 | 3.0 | 3.0 | 0.00 | 0.02 | 0.02 | 58 | 1011.0 |
| 20260509172826 | 75 | 272 | 3.0 | 5.0 | 0.00 | 0.02 | 0.02 | 54 | 1011.1 |
| 20260509172323 | 75 | 244 | 7.0 | 9.0 | 0.00 | 0.02 | 0.02 | 53 | 1011.2 |
| 20260509171818 | 75 | 304 | 4.0 | 5.0 | 0.00 | 0.02 | 0.02 | 53 | 1011.1 |
| 20260509171308 | 75 | 267 | 4.0 | 5.0 | 0.00 | 0.02 | 0.02 | 55 | 1011.2 |
| 20260509170804 | 75 | 270 | 4.0 | 5.0 | 0.00 | 0.02 | 0.02 | 57 | 1011.0 |
| 20260509170300 | 75 | 287 | 7.0 | 8.0 | 0.00 | 0.02 | 0.02 | 54 | 1011.3 |
| 20260509165800 | 75 | 316 | 9.0 | 9.0 | 0.00 | 0.02 | 0.02 | 54 | 1011.3 |
| 20260509165255 | 75 | 262 | 2.0 | 3.0 | 0.00 | 0.02 | 0.02 | 67 | 1011.4 |
| 20260509164751 | 74 | 227 | 4.0 | 6.0 | 0.00 | 0.02 | 0.02 | 61 | 1011.7 |
| 20260509164247 | 74 | 260 | 3.0 | 3.0 | 0.00 | 0.02 | 0.02 | 60 | 1011.4 |
| 20260509163745 | 74 | 262 | 2.0 | 3.0 | 0.00 | 0.02 | 0.02 | 61 | 1011.3 |
| 20260509163240 | 73 | 241 | 3.0 | 3.0 | 0.00 | 0.02 | 0.02 | 66 | 1011.3 |
| 20260509162739 | 73 | 287 | 5.0 | 7.0 | 0.00 | 0.02 | 0.02 | 63 | 1011.4 |
| 20260509162233 | 73 | 262 | 3.0 | 3.0 | 0.00 | 0.02 | 0.02 | 62 | 1011.3 |
| 20260509161729 | 72 | 304 | 5.0 | 6.0 | 0.00 | 0.02 | 0.02 | 63 | 1011.5 |
| 20260509161226 | 72 | 254 | 5.0 | 6.0 | 0.00 | 0.02 | 0.02 | 65 | 1011.5 |
| 20260509160721 | 71 | 265 | 5.0 | 6.0 | 0.00 | 0.02 | 0.02 | 67 | 1011.4 |
| 20260509160218 | 71 | 247 | 3.0 | 5.0 | 0.00 | 0.02 | 0.02 | 69 | 1011.5 |
| 20260509155713 | 71 | 310 | 3.0 | 3.0 | 0.00 | 0.02 | 0.02 | 68 | 1011.6 |
| 20260509155210 | 71 | 320 | 1.0 | 2.0 | 0.00 | 0.02 | 0.02 | 72 | 1011.5 |
| 20260509154706 | 70 | 335 | 5.0 | 5.0 | 0.00 | 0.02 | 0.02 | 75 | 1011.4 |
| 20260509154203 | 70 | 282 | 3.0 | 3.0 | 0.00 | 0.02 | 0.02 | 73 | 1011.6 |
| 20260509153700 | 69 | 295 | 3.0 | 3.0 | 0.00 | 0.02 | 0.02 | 76 | 1011.4 |
| 20260509153156 | 69 | 310 | 3.0 | 3.0 | 0.00 | 0.02 | 0.02 | 76 | 1011.4 |
| 20260509152652 | 69 | 254 | 3.0 | 3.0 | 0.00 | 0.02 | 0.02 | 79 | 1011.4 |
| 20260509152149 | 69 | 282 | 3.0 | 5.0 | 0.00 | 0.02 | 0.02 | 77 | 1011.3 |
| 20260509151646 | 68 | 222 | 2.0 | 2.0 | 0.00 | 0.02 | 0.02 | 82 | 1011.5 |
| 20260509151143 | 68 | 267 | 1.0 | 2.0 | 0.00 | 0.02 | 0.02 | 79 | 1011.4 |
| 20260509150641 | 67 | 209 | 3.0 | 3.0 | 0.00 | 0.02 | 0.02 | 81 | 1011.2 |
| 20260509150139 | 67 | 298 | 5.0 | 6.0 | 0.00 | 0.02 | 0.02 | 79 | 1011.1 |
| 20260509145635 | 66 | 209 | 1.0 | 1.0 | 0.00 | 0.02 | 0.02 | 83 | 1011.1 |
| 20260509145130 | 66 | 257 | 1.0 | 1.0 | 0.00 | 0.02 | 0.02 | 84 | 1011.3 |
| 20260509144627 | 65 | 220 | 1.0 | 1.0 | 0.00 | 0.02 | 0.02 | 86 | 1011.3 |
| 20260509144124 | 64 | 205 | 0.0 | 0.0 | 0.00 | 0.02 | 0.02 | 90 | 1011.1 |
| 20260509143622 | 64 | 200 | 0.0 | 0.0 | 0.00 | 0.02 | 0.02 | 92 | 1011.1 |
| 20260509143119 | 63 | 201 | 1.0 | 1.0 | 0.00 | 0.02 | 0.02 | 95 | 1011.1 |
| 20260509142614 | 63 | 232 | 1.0 | 1.0 | 0.00 | 0.02 | 0.02 | 97 | 1011.1 |
| 20260509142111 | 62 | 208 | 1.0 | 1.0 | 0.00 | 0.02 | 0.02 | 98 | 1011.3 |
| 20260509141607 | 62 | 195 | 1.0 | 1.0 | 0.00 | 0.02 | 0.02 | 98 | 1011.2 |
| 20260509141103 | 61 | 198 | 0.0 | 0.0 | 0.00 | 0.02 | 0.02 | 99 | 1011.2 |
| 20260509140601 | 60 | 198 | 0.0 | 1.0 | 0.00 | 0.02 | 0.02 | 99 | 1011.4 |
| 20260509140058 | 60 | 217 | 0.0 | 1.0 | 0.00 | 0.02 | 0.02 | 99 | 1011.1 |
| 20260509135555 | 59 | 235 | 2.0 | 2.0 | 0.00 | 0.02 | 0.02 | 99 | 1011.4 |
| 20260509135053 | 58 | 232 | 1.0 | 2.0 | 0.00 | 0.02 | 0.02 | 99 | 1011.2 |
| 20260509134550 | 59 | 210 | 0.0 | 1.0 | 0.00 | 0.02 | 0.02 | 99 | 1011.1 |
| 20260509134047 | 58 | 239 | 1.0 | 1.0 | 0.00 | 0.02 | 0.02 | 99 | 1011.0 |
| 20260509133544 | 59 | 219 | 1.0 | 1.0 | 0.00 | 0.02 | 0.02 | 99 | 1010.9 |
| 20260509133042 | 58 | 196 | 0.0 | 0.0 | 0.00 | 0.02 | 0.02 | 99 | 1010.9 |
| 20260509132540 | 56 | 210 | 0.0 | 0.0 | 0.00 | 0.02 | 0.02 | 99 | 1011.0 |
| 20260509132038 | 56 | 198 | 0.0 | 0.0 | 0.00 | 0.02 | 0.02 | 99 | 1011.2 |
| 20260509131533 | 56 | 197 | 0.0 | 0.0 | 0.00 | 0.02 | 0.02 | 99 | 1011.0 |
| 20260509131030 | 56 | 190 | 0.0 | 0.0 | 0.00 | 0.02 | 0.02 | 99 | 1011.1 |
| 20260509130525 | 55 | 208 | 0.0 | 0.0 | 0.00 | 0.02 | 0.02 | 99 | 1011.0 |
| 20260509130018 | 55 | 216 | 0.0 | 0.0 | 0.00 | 0.02 | 0.02 | 99 | 1010.9 |
| 20260509125514 | 55 | 216 | 0.0 | 0.0 | 0.00 | 0.02 | 0.02 | 99 | 1011.0 |
| 20260509125010 | 55 | 243 | 1.0 | 1.0 | 0.00 | 0.02 | 0.02 | 99 | 1011.0 |
| 20260509124507 | 55 | 220 | 0.0 | 1.0 | 0.00 | 0.02 | 0.02 | 99 | 1010.9 |
| 20260509124004 | 55 | 222 | 0.0 | 0.0 | 0.00 | 0.02 | 0.02 | 99 | 1011.0 |
| 20260509123502 | 54 | 196 | 0.0 | 0.0 | 0.00 | 0.02 | 0.02 | 99 | 1010.7 |
| 20260509122957 | 54 | 213 | 0.0 | 0.0 | 0.00 | 0.02 | 0.02 | 99 | 1010.6 |
| 20260509122455 | 54 | 219 | 0.0 | 1.0 | 0.00 | 0.02 | 0.02 | 99 | 1010.8 |
| 20260509121952 | 54 | 254 | 1.0 | 1.0 | 0.00 | 0.02 | 0.02 | 99 | 1010.5 |
| 20260509121448 | 54 | 243 | 0.0 | 0.0 | 0.00 | 0.02 | 0.02 | 99 | 1010.5 |
| 20260509120946 | 54 | 277 | 1.0 | 2.0 | 0.00 | 0.02 | 0.02 | 99 | 1010.5 |
| 20260509120444 | 54 | 278 | 2.0 | 2.0 | 0.00 | 0.02 | 0.02 | 99 | 1010.6 |
| 20260509115942 | 54 | 255 | 1.0 | 2.0 | 0.00 | 0.02 | 0.02 | 99 | 1010.5 |
| 20260509115439 | 54 | 249 | 0.0 | 0.0 | 0.00 | 0.02 | 0.02 | 99 | 1010.2 |
| 20260509114936 | 54 | 244 | 0.0 | 0.0 | 0.00 | 0.02 | 0.02 | 99 | 1010.1 |
| 20260509114435 | 54 | 219 | 0.0 | 0.0 | 0.00 | 0.02 | 0.02 | 99 | 1010.2 |
| 20260509113934 | 54 | 278 | 2.0 | 2.0 | 0.00 | 0.02 | 0.02 | 99 | 1010.3 |
| 20260509113431 | 54 | 243 | 1.0 | 2.0 | 0.00 | 0.02 | 0.02 | 99 | 1010.3 |
| 20260509112927 | 54 | 293 | 2.0 | 2.0 | 0.00 | 0.02 | 0.02 | 99 | 1010.0 |
| 20260509112425 | 54 | 231 | 1.0 | 1.0 | 0.00 | 0.02 | 0.02 | 99 | 1010.1 |
| 20260509111921 | 54 | 310 | 1.0 | 2.0 | 0.00 | 0.02 | 0.02 | 99 | 1010.1 |
| 20260509111419 | 54 | 229 | 0.0 | 1.0 | 0.00 | 0.02 | 0.02 | 99 | 1010.0 |
| 20260509110916 | 54 | 227 | 1.0 | 1.0 | 0.07 | 0.02 | 0.02 | 99 | 1009.8 |
| 20260509110412 | 54 | 230 | 1.0 | 1.0 | 0.00 | 0.01 | 0.01 | 99 | 1010.3 |
| 20260509105910 | 54 | 236 | 1.0 | 1.0 | 0.00 | 0.01 | 0.01 | 99 | 1010.1 |
| 20260509105408 | 54 | 218 | 0.0 | 0.0 | 0.00 | 0.01 | 0.01 | 99 | 1009.9 |
| 20260509104859 | 55 | 213 | 0.0 | 0.0 | 0.00 | 0.01 | 0.01 | 99 | 1010.1 |
| 20260509104356 | 55 | 276 | 1.0 | 2.0 | 0.00 | 0.01 | 0.01 | 99 | 1010.1 |
| 20260509103853 | 55 | 263 | 0.0 | 1.0 | 0.00 | 0.01 | 0.01 | 99 | 1010.2 |
| 20260509103350 | 55 | 205 | 1.0 | 1.0 | 0.00 | 0.01 | 0.01 | 99 | 1010.2 |
| 20260509102849 | 55 | 226 | 1.0 | 1.0 | 0.00 | 0.01 | 0.01 | 99 | 1010.1 |
| 20260509102346 | 55 | 283 | 2.0 | 2.0 | 0.00 | 0.01 | 0.01 | 99 | 1010.5 |
| 20260509101841 | 55 | 267 | 3.0 | 3.0 | 0.00 | 0.01 | 0.01 | 99 | 1010.6 |
| 20260509101338 | 55 | 311 | 3.0 | 5.0 | 0.00 | 0.01 | 0.01 | 99 | 1010.2 |
| 20260509100836 | 55 | 234 | 1.0 | 2.0 | 0.00 | 0.01 | 0.01 | 99 | 1010.3 |
| 20260509100333 | 55 | 225 | 1.0 | 1.0 | 0.00 | 0.01 | 0.01 | 99 | 1010.5 |
| 20260509095829 | 55 | 273 | 3.0 | 3.0 | 0.00 | 0.01 | 0.01 | 99 | 1010.6 |
| 20260509095327 | 55 | 237 | 1.0 | 1.0 | 0.00 | 0.01 | 0.01 | 99 | 1010.5 |
| 20260509094824 | 55 | 211 | 1.0 | 1.0 | 0.00 | 0.01 | 0.01 | 99 | 1010.3 |
| 20260509094320 | 55 | 255 | 1.0 | 2.0 | 0.00 | 0.01 | 0.01 | 99 | 1010.5 |
| 20260509093818 | 55 | 269 | 1.0 | 1.0 | 0.00 | 0.01 | 0.01 | 99 | 1010.6 |
| 20260509093315 | 55 | 252 | 1.0 | 1.0 | 0.00 | 0.01 | 0.01 | 99 | 1010.3 |
| 20260509092814 | 56 | 237 | 1.0 | 1.0 | 0.00 | 0.01 | 0.01 | 99 | 1010.2 |
| 20260509092311 | 55 | 231 | 3.0 | 3.0 | 0.00 | 0.01 | 0.01 | 99 | 1010.2 |
| 20260509091809 | 55 | 259 | 1.0 | 2.0 | 0.00 | 0.01 | 0.01 | 99 | 1010.3 |
| 20260509091305 | 55 | 318 | 2.0 | 2.0 | 0.00 | 0.01 | 0.01 | 99 | 1010.6 |
| 20260509090803 | 55 | 301 | 2.0 | 2.0 | 0.00 | 0.01 | 0.01 | 99 | 1010.2 |
| 20260509090300 | 55 | 224 | 0.0 | 0.0 | 0.00 | 0.01 | 0.01 | 99 | 1010.2 |
| 20260509085757 | 55 | 237 | 1.0 | 1.0 | 0.00 | 0.01 | 0.01 | 99 | 1010.0 |
| 20260509085255 | 55 | 236 | 1.0 | 1.0 | 0.00 | 0.01 | 0.01 | 99 | 1010.1 |
| 20260509084751 | 55 | 251 | 2.0 | 2.0 | 0.00 | 0.01 | 0.01 | 99 | 1010.1 |
| 20260509084248 | 55 | 243 | 1.0 | 1.0 | 0.00 | 0.01 | 0.01 | 99 | 1010.1 |
| 20260509083746 | 55 | 250 | 1.0 | 2.0 | 0.00 | 0.01 | 0.01 | 99 | 1010.2 |
| 20260509083242 | 55 | 224 | 0.0 | 1.0 | 0.00 | 0.01 | 0.01 | 99 | 1010.0 |
| 20260509082739 | 55 | 220 | 0.0 | 0.0 | 0.00 | 0.01 | 0.01 | 99 | 1010.0 |
| 20260509082235 | 55 | 227 | 1.0 | 1.0 | 0.00 | 0.01 | 0.01 | 99 | 1009.9 |
| 20260509081732 | 55 | 219 | 0.0 | 0.0 | 0.00 | 0.01 | 0.01 | 99 | 1009.7 |
| 20260509081230 | 55 | 267 | 1.0 | 1.0 | 0.00 | 0.01 | 0.01 | 99 | 1009.9 |
| 20260509080728 | 55 | 224 | 1.0 | 1.0 | 0.00 | 0.01 | 0.01 | 99 | 1010.0 |
| 20260509080225 | 55 | 218 | 1.0 | 1.0 | 0.05 | 0.01 | 0.01 | 99 | 1009.7 |
| 20260509075723 | 55 | 228 | 2.0 | 2.0 | 0.05 | 0.01 | 0.01 | 99 | 1009.7 |
| 20260509075221 | 55 | 214 | 0.0 | 0.0 | 0.00 | 0.00 | 0.00 | 99 | 1009.7 |
| 20260509074718 | 55 | 223 | 0.0 | 1.0 | 0.00 | 0.00 | 0.00 | 99 | 1009.7 |
| 20260509074215 | 55 | 246 | 2.0 | 2.0 | 0.00 | 0.00 | 0.00 | 99 | 1009.5 |
| 20260509073711 | 56 | 243 | 0.0 | 0.0 | 0.00 | 0.00 | 0.00 | 99 | 1009.4 |
| 20260509073207 | 56 | 256 | 2.0 | 2.0 | 0.00 | 0.00 | 0.00 | 99 | 1009.3 |
| 20260509072704 | 56 | 290 | 2.0 | 2.0 | 0.00 | 0.00 | 0.00 | 99 | 1009.6 |
| 20260509072200 | 56 | 303 | 3.0 | 3.0 | 0.00 | 0.00 | 0.00 | 99 | 1009.6 |
| 20260509071652 | 56 | 238 | 1.0 | 1.0 | 0.00 | 0.00 | 0.00 | 99 | 1009.6 |
| 20260509071149 | 56 | 213 | 0.0 | 0.0 | 0.00 | 0.00 | 0.00 | 99 | 1009.5 |
| 20260509070646 | 56 | 215 | 0.0 | 1.0 | 0.00 | 0.00 | 0.00 | 99 | 1009.6 |
| 20260509070142 | 56 | 311 | 2.0 | 2.0 | 0.00 | 0.00 | 0.00 | 99 | 1009.9 |
| 20260509065638 | 57 | 222 | 0.0 | 0.0 | 0.00 | 0.00 | 0.00 | 99 | 1009.8 |
| 20260509065134 | 57 | 253 | 1.0 | 1.0 | 0.00 | 0.00 | 0.00 | 99 | 1009.7 |
| 20260509064632 | 57 | 218 | 1.0 | 1.0 | 0.00 | 0.00 | 0.00 | 99 | 1009.9 |
| 20260509064130 | 57 | 231 | 1.0 | 1.0 | 0.00 | 0.00 | 0.00 | 99 | 1009.6 |
| 20260509063626 | 57 | 211 | 0.0 | 1.0 | 0.00 | 0.00 | 0.00 | 99 | 1010.1 |
| 20260509063123 | 57 | 259 | 1.0 | 2.0 | 0.00 | 0.00 | 0.00 | 99 | 1010.0 |
| 20260509062620 | 57 | 228 | 1.0 | 1.0 | 0.00 | 0.00 | 0.00 | 99 | 1010.0 |
| 20260509062117 | 57 | 244 | 2.0 | 2.0 | 0.00 | 0.00 | 0.00 | 99 | 1010.0 |
| 20260509061614 | 57 | 272 | 1.0 | 2.0 | 0.00 | 0.00 | 0.00 | 99 | 1010.0 |
| 20260509061111 | 57 | 245 | 0.0 | 0.0 | 0.00 | 0.00 | 0.00 | 99 | 1009.9 |
| 20260509060609 | 57 | 252 | 0.0 | 0.0 | 0.00 | 0.00 | 0.00 | 99 | 1010.1 |
| 20260509060104 | 57 | 232 | 1.0 | 1.0 | 0.00 | 0.00 | 0.00 | 99 | 1010.2 |
| 20260509055600 | 57 | 215 | 0.0 | 0.0 | 0.00 | 0.00 | 0.00 | 99 | 1010.3 |
| 20260509055056 | 57 | 206 | 0.0 | 0.0 | 0.00 | 0.00 | 0.00 | 99 | 1010.0 |
| 20260509054553 | 57 | 208 | 0.0 | 1.0 | 0.00 | 0.00 | 0.00 | 99 | 1010.1 |
| 20260509054051 | 57 | 260 | 1.0 | 1.0 | 0.00 | 0.00 | 0.00 | 99 | 1009.9 |
| 20260509053549 | 57 | 239 | 1.0 | 2.0 | 0.00 | 0.00 | 0.00 | 99 | 1010.0 |
| 20260509053046 | 57 | 293 | 2.0 | 2.0 | 0.00 | 0.00 | 0.00 | 99 | 1009.8 |
| 20260509052543 | 57 | 226 | 1.0 | 1.0 | 0.00 | 0.00 | 0.00 | 99 | 1010.0 |
| 20260509052041 | 58 | 231 | 3.0 | 3.0 | 0.00 | 0.00 | 0.00 | 99 | 1009.9 |
| 20260509051539 | 58 | 250 | 3.0 | 5.0 | 0.00 | 0.00 | 0.00 | 99 | 1010.0 |
| 20260509051036 | 58 | 218 | 1.0 | 1.0 | 0.00 | 0.00 | 0.00 | 99 | 1010.5 |
| 20260509050533 | 58 | 212 | 2.0 | 2.0 | 0.00 | 0.00 | 0.00 | 99 | 1010.3 |
| 20260509050029 | 58 | 210 | 0.0 | 0.0 | 0.00 | 0.75 | 0.75 | 99 | 1010.3 |
| 20260509045526 | 58 | 212 | 0.0 | 0.0 | 0.00 | 0.75 | 0.75 | 98 | 1010.5 |
| 20260509045023 | 57 | 225 | 0.0 | 0.0 | 0.00 | 0.75 | 0.75 | 98 | 1010.5 |
| 20260509044520 | 57 | 224 | 0.0 | 0.0 | 0.00 | 0.75 | 0.75 | 98 | 1010.5 |
| 20260509044013 | 58 | 235 | 0.0 | 1.0 | 0.00 | 0.75 | 0.75 | 98 | 1010.2 |
| 20260509043508 | 57 | 218 | 0.0 | 0.0 | 0.00 | 0.75 | 0.75 | 98 | 1010.3 |
| 20260509043005 | 57 | 218 | 0.0 | 0.0 | 0.00 | 0.75 | 0.75 | 98 | 1010.3 |
| 20260509042501 | 56 | 225 | 0.0 | 0.0 | 0.00 | 0.75 | 0.75 | 98 | 1010.3 |
| 20260509041957 | 56 | 215 | 0.0 | 0.0 | 0.07 | 0.75 | 0.75 | 98 | 1010.3 |
| 20260509041454 | 57 | 185 | 0.0 | 0.0 | 0.07 | 0.75 | 0.75 | 98 | 1010.2 |
| 20260509040952 | 57 | 182 | 0.0 | 0.0 | 0.00 | 0.74 | 0.74 | 98 | 1010.6 |
| 20260509040450 | 56 | 291 | 0.0 | 0.0 | 0.00 | 0.74 | 0.74 | 98 | 1010.0 |
| 20260509035946 | 57 | 221 | 0.0 | 0.0 | 0.00 | 0.74 | 0.74 | 98 | 1010.3 |
| 20260509035443 | 57 | 261 | 0.0 | 0.0 | 0.00 | 0.74 | 0.74 | 98 | 1010.2 |
| 20260509034939 | 57 | 244 | 0.0 | 0.0 | 0.00 | 0.74 | 0.74 | 98 | 1010.2 |
| 20260509034438 | 57 | 255 | 0.0 | 0.0 | 0.00 | 0.74 | 0.74 | 98 | 1010.2 |
| 20260509033934 | 58 | 251 | 0.0 | 0.0 | 0.00 | 0.74 | 0.74 | 98 | 1010.3 |
| 20260509033431 | 58 | 187 | 0.0 | 0.0 | 0.00 | 0.74 | 0.74 | 98 | 1010.0 |
| 20260509032928 | 58 | 148 | 0.0 | 0.0 | 0.00 | 0.74 | 0.74 | 98 | 1010.1 |
| 20260509032425 | 58 | 183 | 0.0 | 0.0 | 0.00 | 0.74 | 0.74 | 98 | 1010.1 |
| 20260509031923 | 59 | 99 | 1.0 | 1.0 | 0.00 | 0.74 | 0.74 | 98 | 1010.0 |
| 20260509031420 | 59 | 181 | 0.0 | 0.0 | 0.00 | 0.74 | 0.74 | 98 | 1009.9 |
| 20260509030917 | 59 | 183 | 0.0 | 0.0 | 0.00 | 0.74 | 0.74 | 98 | 1010.0 |
| 20260509030415 | 59 | 195 | 0.0 | 0.0 | 0.00 | 0.74 | 0.74 | 98 | 1010.0 |
| 20260509025912 | 59 | 237 | 0.0 | 0.0 | 0.00 | 0.74 | 0.74 | 98 | 1010.0 |
| 20260509025408 | 59 | 199 | 0.0 | 0.0 | 0.00 | 0.74 | 0.74 | 98 | 1009.7 |
| 20260509024903 | 59 | 199 | 0.0 | 0.0 | 0.00 | 0.74 | 0.74 | 98 | 1009.7 |
| 20260509024359 | 59 | 193 | 0.0 | 0.0 | 0.00 | 0.74 | 0.74 | 98 | 1009.6 |
| 20260509023857 | 60 | 197 | 0.0 | 0.0 | 0.00 | 0.74 | 0.74 | 98 | 1009.5 |
| 20260509023354 | 60 | 213 | 0.0 | 0.0 | 0.00 | 0.74 | 0.74 | 98 | 1009.3 |
| 20260509022850 | 60 | 192 | 0.0 | 0.0 | 0.00 | 0.74 | 0.74 | 97 | 1009.2 |
| 20260509022348 | 60 | 203 | 0.0 | 0.0 | 0.00 | 0.74 | 0.74 | 97 | 1009.1 |
| 20260509021844 | 60 | 183 | 0.0 | 0.0 | 0.12 | 0.74 | 0.74 | 97 | 1009.2 |
| 20260509021341 | 60 | 177 | 0.0 | 0.0 | 0.35 | 0.74 | 0.74 | 97 | 1009.3 |
| 20260509020839 | 60 | 172 | 0.0 | 1.0 | 0.31 | 0.72 | 0.72 | 97 | 1009.3 |
| 20260509020337 | 60 | 195 | 0.0 | 0.0 | 0.12 | 0.68 | 0.68 | 97 | 1009.4 |
| 20260509015834 | 60 | 199 | 0.0 | 0.0 | 0.12 | 0.67 | 0.67 | 97 | 1009.7 |
| 20260509015332 | 60 | 188 | 0.0 | 0.0 | 0.12 | 0.66 | 0.66 | 97 | 1009.5 |
| 20260509014828 | 60 | 229 | 0.0 | 1.0 | 0.05 | 0.65 | 0.65 | 97 | 1009.5 |
| 20260509014320 | 60 | 198 | 0.0 | 0.0 | 0.07 | 0.64 | 0.64 | 97 | 1009.4 |
| 20260509013816 | 60 | 213 | 0.0 | 0.0 | 0.61 | 0.64 | 0.64 | 97 | 1009.4 |
| 20260509013312 | 60 | 274 | 0.0 | 1.0 | 0.90 | 0.63 | 0.63 | 97 | 1009.2 |
| 20260509012808 | 60 | 132 | 3.0 | 3.0 | 0.35 | 0.53 | 0.53 | 97 | 1009.4 |
| 20260509012307 | 60 | 223 | 0.0 | 0.0 | 0.12 | 0.48 | 0.48 | 96 | 1009.8 |
| 20260509011802 | 60 | 302 | 2.0 | 2.0 | 0.12 | 0.47 | 0.47 | 96 | 1009.5 |
| 20260509011255 | 60 | 310 | 2.0 | 2.0 | 0.12 | 0.46 | 0.46 | 96 | 1009.4 |
| 20260509010752 | 60 | 199 | 0.0 | 0.0 | 0.14 | 0.45 | 0.45 | 96 | 1008.8 |
| 20260509010249 | 60 | 202 | 0.0 | 0.0 | 0.12 | 0.44 | 0.44 | 96 | 1009.0 |
| 20260509005746 | 60 | 199 | 0.0 | 0.0 | 0.05 | 0.43 | 0.43 | 96 | 1008.5 |
| 20260509005243 | 60 | 175 | 0.0 | 0.0 | 0.00 | 0.42 | 0.42 | 95 | 1008.7 |
| 20260509004738 | 60 | 191 | 0.0 | 1.0 | 0.07 | 0.42 | 0.42 | 95 | 1008.4 |
| 20260509004235 | 61 | 169 | 0.0 | 0.0 | 0.31 | 0.42 | 0.42 | 95 | 1008.4 |
| 20260509003733 | 61 | 147 | 0.0 | 1.0 | 0.83 | 0.41 | 0.41 | 95 | 1008.5 |
| 20260509003231 | 61 | 184 | 0.0 | 0.0 | 0.78 | 0.35 | 0.35 | 95 | 1008.6 |
| 20260509002728 | 61 | 316 | 3.0 | 3.0 | 0.66 | 0.26 | 0.26 | 95 | 1009.0 |
| 20260509002225 | 62 | 18 | 7.0 | 9.0 | 0.40 | 0.19 | 0.19 | 94 | 1009.2 |
| 20260509001723 | 62 | 26 | 7.0 | 9.0 | 0.05 | 0.13 | 0.13 | 95 | 1008.9 |
| 20260509001218 | 62 | 347 | 6.0 | 9.0 | 0.00 | 0.12 | 0.12 | 95 | 1009.2 |
| 20260509000717 | 62 | 312 | 4.0 | 5.0 | 0.00 | 0.12 | 0.12 | 95 | 1008.1 |
| 20260509000214 | 62 | 284 | 1.0 | 1.0 | 0.00 | 0.12 | 0.12 | 94 | 1007.5 |
| 20260508235710 | 63 | 213 | 0.0 | 0.0 | 0.00 | 0.12 | 0.12 | 94 | 1007.3 |
| 20260508235207 | 63 | 205 | 0.0 | 0.0 | 0.00 | 0.12 | 0.12 | 93 | 1007.4 |
| 20260508234705 | 63 | 189 | 0.0 | 0.0 | 0.00 | 0.12 | 0.12 | 93 | 1007.2 |
| 20260508234200 | 63 | 254 | 0.0 | 1.0 | 0.00 | 0.12 | 0.12 | 93 | 1007.3 |
| 20260508233654 | 63 | 259 | 1.0 | 2.0 | 0.00 | 0.12 | 0.12 | 92 | 1007.2 |
| 20260508233151 | 64 | 157 | 0.0 | 0.0 | 0.00 | 0.12 | 0.12 | 91 | 1007.2 |
| 20260508232649 | 64 | 127 | 0.0 | 0.0 | 0.00 | 0.12 | 0.12 | 91 | 1007.2 |
| 20260508232145 | 64 | 61 | 1.0 | 1.0 | 0.00 | 0.12 | 0.12 | 90 | 1007.5 |
| 20260508231643 | 64 | 158 | 0.0 | 0.0 | 0.00 | 0.12 | 0.12 | 90 | 1007.6 |
| 20260508231140 | 65 | 41 | 1.0 | 1.0 | 0.00 | 0.12 | 0.12 | 89 | 1007.7 |
| 20260508230637 | 65 | 177 | 0.0 | 0.0 | 0.00 | 0.12 | 0.12 | 88 | 1007.7 |
| 20260508230133 | 66 | 191 | 0.0 | 0.0 | 0.00 | 0.12 | 0.12 | 87 | 1007.7 |
| 20260508225631 | 66 | 196 | 0.0 | 0.0 | 0.00 | 0.12 | 0.12 | 87 | 1007.9 |
| 20260508225127 | 65 | 171 | 1.0 | 1.0 | 0.00 | 0.12 | 0.12 | 88 | 1007.7 |
| 20260508224625 | 65 | 183 | 0.0 | 0.0 | 0.00 | 0.12 | 0.12 | 88 | 1008.2 |
| 20260508224122 | 66 | 184 | 1.0 | 1.0 | 0.00 | 0.12 | 0.12 | 88 | 1008.1 |
| 20260508223620 | 66 | 189 | 1.0 | 1.0 | 0.00 | 0.12 | 0.12 | 90 | 1008.4 |
| 20260508223117 | 64 | 194 | 0.0 | 0.0 | 0.00 | 0.12 | 0.12 | 92 | 1008.5 |
| 20260508222614 | 64 | 190 | 1.0 | 1.0 | 0.00 | 0.12 | 0.12 | 93 | 1008.5 |
| 20260508222111 | 63 | 196 | 1.0 | 1.0 | 0.07 | 0.12 | 0.12 | 95 | 1008.3 |
| 20260508221607 | 62 | 78 | 1.0 | 1.0 | 0.07 | 0.12 | 0.12 | 95 | 1008.3 |
| 20260508221103 | 61 | 68 | 2.0 | 3.0 | 0.12 | 0.11 | 0.11 | 94 | 1008.4 |
| 20260508220600 | 62 | 185 | 0.0 | 0.0 | 0.19 | 0.10 | 0.10 | 94 | 1008.7 |
| 20260508220056 | 62 | 187 | 0.0 | 0.0 | 0.19 | 0.09 | 0.09 | 94 | 1009.0 |
| 20260508215553 | 62 | 179 | 0.0 | 0.0 | 0.12 | 0.07 | 0.07 | 94 | 1009.2 |
| 20260508215050 | 63 | 187 | 0.0 | 0.0 | 0.12 | 0.06 | 0.06 | 94 | 1009.4 |
| 20260508214547 | 63 | 153 | 0.0 | 0.0 | 0.19 | 0.05 | 0.05 | 93 | 1009.3 |
| 20260508214043 | 63 | 175 | 1.0 | 1.0 | 0.17 | 0.04 | 0.04 | 93 | 1009.4 |
| 20260508213541 | 63 | 238 | 0.0 | 1.0 | 0.05 | 0.02 | 0.02 | 92 | 1009.5 |
| 20260508213037 | 64 | 321 | 1.0 | 1.0 | 0.07 | 0.01 | 0.01 | 91 | 1009.5 |
| 20260508212533 | 64 | 356 | 2.0 | 2.0 | 0.07 | 0.01 | 0.01 | 90 | 1009.5 |
| 20260508212030 | 65 | 15 | 2.0 | 2.0 | 0.00 | 0.00 | 0.00 | 87 | 1009.4 |
| 20260508211525 | 66 | 166 | 0.0 | 0.0 | 0.00 | 0.00 | 0.00 | 86 | 1009.8 |
| 20260508211022 | 66 | 166 | 0.0 | 0.0 | 0.00 | 0.00 | 0.00 | 83 | 1009.5 |
| 20260508210518 | 67 | 154 | 0.0 | 0.0 | 0.00 | 0.00 | 0.00 | 82 | 1009.7 |
| 20260508210016 | 67 | 350 | 1.0 | 2.0 | 0.00 | 0.00 | 0.00 | 78 | 1009.7 |
| 20260508205513 | 67 | 334 | 2.0 | 2.0 | 0.00 | 0.00 | 0.00 | 80 | 1009.4 |
| 20260508205009 | 69 | 312 | 2.0 | 2.0 | 0.00 | 0.00 | 0.00 | 80 | 1009.3 |
| 20260508204507 | 70 | 222 | 0.0 | 0.0 | 0.00 | 0.00 | 0.00 | 78 | 1008.8 |
| 20260508204002 | 70 | 224 | 0.0 | 1.0 | 0.00 | 0.00 | 0.00 | 70 | 1008.4 |
| 20260508203458 | 70 | 152 | 1.0 | 2.0 | 0.00 | 0.00 | 0.00 | 74 | 1008.7 |
| 20260508202954 | 72 | 176 | 0.0 | 1.0 | 0.00 | 0.00 | 0.00 | 69 | 1008.9 |
| 20260508202451 | 72 | 197 | 0.0 | 0.0 | 0.00 | 0.00 | 0.00 | 63 | 1009.3 |
| 20260508201948 | 71 | 201 | 0.0 | 0.0 | 0.00 | 0.00 | 0.00 | 63 | 1009.2 |
| 20260508201444 | 71 | 215 | 0.0 | 0.0 | 0.00 | 0.00 | 0.00 | 66 | 1009.3 |
| 20260508200941 | 71 | 296 | 2.0 | 2.0 | 0.00 | 0.00 | 0.00 | 67 | 1009.6 |
| 20260508200438 | 72 | 174 | 0.0 | 0.0 | 0.00 | 0.00 | 0.00 | 62 | 1009.7 |
| 20260508195933 | 72 | 206 | 0.0 | 0.0 | 0.00 | 0.00 | 0.00 | 64 | 1010.0 |
| 20260508195431 | 72 | 202 | 0.0 | 0.0 | 0.00 | 0.00 | 0.00 | 64 | 1009.8 |
| 20260508194926 | 71 | 262 | 1.0 | 1.0 | 0.00 | 0.00 | 0.00 | 61 | 1009.7 |
| 20260508194418 | 72 | 206 | 0.0 | 0.0 | 0.00 | 0.00 | 0.00 | 60 | 1010.0 |
| 20260508193915 | 72 | 240 | 0.0 | 0.0 | 0.00 | 0.00 | 0.00 | 59 | 1010.1 |